createdAt,value
2017-09-05T00:00:56.520Z,14.96
2017-09-05T00:03:23.911Z,14.96
2017-09-05T00:05:51.294Z,14.69
2017-09-05T00:11:24.379Z,14.38
2017-09-05T00:13:52.715Z,14.28
2017-09-05T00:19:28.439Z,14.49
2017-09-05T00:22:05.710Z,14.37
2017-09-05T00:24:33.110Z,14.43
2017-09-05T00:27:00.499Z,14.46
2017-09-05T00:29:27.898Z,14.58
2017-09-05T00:31:55.290Z,14.67
2017-09-05T00:34:22.678Z,14.63
2017-09-05T00:36:50.078Z,14.64
2017-09-05T00:39:17.459Z,14.76
2017-09-05T00:41:44.862Z,14.73
2017-09-05T00:44:12.257Z,14.59
2017-09-05T00:46:39.686Z,14.54
2017-09-05T00:49:07.070Z,14.61
2017-09-05T00:51:34.464Z,14.63
2017-09-05T00:54:01.846Z,14.64
2017-09-05T00:56:29.313Z,14.65
2017-09-05T01:01:30.470Z,14.65
2017-09-05T01:03:57.860Z,14.66
2017-09-05T01:06:25.255Z,14.64
2017-09-05T01:08:52.642Z,14.52
2017-09-05T01:11:20.034Z,14.31
2017-09-05T01:13:47.430Z,13.89
2017-09-05T01:16:14.906Z,13.72
2017-09-05T01:18:42.292Z,14.02
2017-09-05T01:21:09.713Z,13.94
2017-09-05T01:23:37.102Z,14.00
2017-09-05T01:26:04.520Z,14.13
2017-09-05T01:28:31.910Z,14.04
2017-09-05T01:30:59.306Z,13.95
2017-09-05T01:33:26.710Z,13.99
2017-09-05T01:35:54.142Z,14.03
2017-09-05T01:38:21.570Z,14.02
2017-09-05T01:40:48.954Z,13.99
2017-09-05T01:43:16.362Z,13.67
2017-09-05T01:45:43.742Z,13.81
2017-09-05T01:48:11.223Z,13.79
2017-09-05T01:50:38.614Z,13.30
2017-09-05T01:53:06.018Z,13.36
2017-09-05T01:55:33.412Z,13.47
2017-09-05T01:58:00.846Z,13.54
2017-09-05T02:00:28.234Z,13.59
2017-09-05T02:02:55.632Z,13.72
2017-09-05T02:05:23.106Z,13.73
2017-09-05T02:07:50.494Z,13.70
2017-09-05T02:10:17.922Z,13.75
2017-09-05T02:12:45.311Z,13.79
2017-09-05T02:15:12.704Z,13.61
2017-09-05T02:17:40.082Z,13.72
2017-09-05T02:20:07.542Z,13.74
2017-09-05T02:22:34.934Z,13.26
2017-09-05T02:25:02.331Z,13.35
2017-09-05T02:27:29.714Z,13.53
2017-09-05T02:29:57.111Z,13.62
2017-09-05T02:32:24.495Z,13.67
2017-09-05T02:34:51.907Z,13.75
2017-09-05T02:37:19.302Z,13.67
2017-09-05T02:39:46.742Z,13.61
2017-09-05T02:42:14.122Z,13.69
2017-09-05T02:44:41.519Z,13.73
2017-09-05T02:47:08.959Z,13.66
2017-09-05T02:49:36.414Z,13.60
2017-09-05T02:52:03.813Z,13.67
2017-09-05T02:54:31.204Z,13.62
2017-09-05T02:56:58.586Z,13.65
2017-09-05T02:59:25.997Z,13.66
2017-09-05T03:01:53.383Z,13.64
2017-09-05T03:04:20.779Z,13.27
2017-09-05T03:06:48.180Z,13.36
2017-09-05T03:09:15.650Z,13.47
2017-09-05T03:11:43.042Z,13.51
2017-09-05T03:14:10.466Z,13.48
2017-09-05T03:16:37.918Z,13.52
2017-09-05T03:19:05.324Z,13.54
2017-09-05T03:21:32.734Z,13.53
2017-09-05T03:24:00.186Z,13.39
2017-09-05T03:26:27.646Z,13.43
2017-09-05T03:28:55.040Z,13.44
2017-09-05T03:31:22.438Z,13.51
2017-09-05T03:33:49.830Z,13.52
2017-09-05T03:36:17.260Z,13.53
2017-09-05T03:38:44.723Z,13.45
2017-09-05T03:41:12.131Z,13.39
2017-09-05T03:43:39.517Z,13.31
2017-09-05T03:46:06.924Z,13.13
2017-09-05T03:48:34.342Z,13.31
2017-09-05T03:51:01.803Z,13.38
2017-09-05T03:53:29.203Z,13.23
2017-09-05T03:55:56.611Z,13.05
2017-09-05T03:58:24.075Z,13.07
2017-09-05T04:00:51.470Z,12.75
2017-09-05T04:03:18.872Z,12.88
2017-09-05T04:05:46.271Z,12.98
2017-09-05T04:08:13.674Z,13.00
2017-09-05T04:10:41.071Z,13.13
2017-09-05T04:13:08.498Z,13.14
2017-09-05T04:15:35.887Z,13.24
2017-09-05T04:18:03.293Z,13.29
2017-09-05T04:20:30.690Z,13.33
2017-09-05T04:22:58.090Z,13.20
2017-09-05T04:25:25.582Z,13.17
2017-09-05T04:27:52.975Z,13.22
2017-09-05T04:30:20.391Z,13.26
2017-09-05T04:32:47.795Z,13.44
2017-09-05T04:35:15.194Z,13.50
2017-09-05T04:37:42.603Z,13.22
2017-09-05T04:40:09.994Z,13.24
2017-09-05T04:42:37.382Z,13.35
2017-09-05T04:45:04.786Z,13.20
2017-09-05T04:47:32.178Z,13.22
2017-09-05T04:49:59.582Z,13.27
2017-09-05T04:52:26.978Z,13.34
2017-09-05T04:54:54.374Z,13.13
2017-09-05T04:57:21.766Z,13.05
2017-09-05T04:59:49.182Z,12.98
2017-09-05T05:02:16.602Z,13.06
2017-09-05T05:04:44.062Z,13.24
2017-09-05T05:07:11.458Z,13.36
2017-09-05T05:09:38.854Z,13.51
2017-09-05T05:12:06.330Z,13.70
2017-09-05T05:14:33.730Z,13.83
2017-09-05T05:17:01.136Z,14.06
2017-09-05T05:19:28.528Z,14.32
2017-09-05T05:21:55.916Z,14.64
2017-09-05T05:24:23.407Z,14.93
2017-09-05T05:26:50.794Z,15.32
2017-09-05T05:29:18.199Z,15.71
2017-09-05T05:31:45.591Z,16.16
2017-09-05T05:34:12.974Z,16.61
2017-09-05T05:36:40.378Z,17.15
2017-09-05T05:39:07.771Z,17.53
2017-09-05T05:41:35.194Z,17.92
2017-09-05T05:44:02.587Z,18.15
2017-09-05T05:46:30.007Z,18.51
2017-09-05T05:48:57.458Z,18.78
2017-09-05T05:51:24.858Z,19.02
2017-09-05T05:53:52.242Z,19.35
2017-09-05T05:56:19.726Z,19.72
2017-09-05T05:58:47.186Z,20.15
2017-09-05T06:01:14.586Z,20.51
2017-09-05T06:03:41.990Z,20.64
2017-09-05T06:06:09.387Z,20.78
2017-09-05T06:08:36.830Z,21.02
2017-09-05T06:11:04.231Z,21.49
2017-09-05T06:13:31.723Z,21.91
2017-09-05T06:15:59.126Z,22.63
2017-09-05T06:18:26.510Z,23.65
2017-09-05T06:20:53.918Z,24.82
2017-09-05T06:23:21.302Z,25.87
2017-09-05T06:25:48.698Z,27.00
2017-09-05T06:28:16.095Z,28.05
2017-09-05T06:30:43.477Z,28.83
2017-09-05T06:33:10.931Z,29.51
2017-09-05T06:35:38.414Z,30.07
2017-09-05T06:38:05.815Z,30.50
2017-09-05T06:40:33.198Z,30.82
2017-09-05T06:43:00.587Z,31.27
2017-09-05T06:45:27.974Z,31.82
2017-09-05T06:47:55.366Z,32.36
2017-09-05T06:50:22.855Z,32.90
2017-09-05T06:52:50.242Z,33.60
2017-09-05T06:55:17.662Z,34.13
2017-09-05T06:57:45.054Z,34.69
2017-09-05T07:00:12.467Z,35.08
2017-09-05T07:02:39.926Z,35.20
2017-09-05T07:05:07.383Z,35.62
2017-09-05T07:07:34.775Z,36.00
2017-09-05T07:10:02.203Z,35.21
2017-09-05T07:12:29.630Z,34.55
2017-09-05T07:14:57.115Z,33.97
2017-09-05T07:17:24.574Z,33.12
2017-09-05T07:19:51.966Z,31.66
2017-09-05T07:22:19.358Z,31.55
2017-09-05T07:24:46.737Z,31.71
2017-09-05T07:27:14.195Z,32.47
2017-09-05T07:29:41.652Z,33.00
2017-09-05T07:32:09.042Z,32.43
2017-09-05T07:34:36.464Z,31.71
2017-09-05T07:37:03.850Z,31.34
2017-09-05T07:39:31.238Z,31.69
2017-09-05T07:41:58.695Z,32.08
2017-09-05T07:44:26.191Z,32.51
2017-09-05T07:46:53.648Z,33.14
2017-09-05T07:49:21.411Z,33.00
2017-09-05T07:51:48.799Z,33.03
2017-09-05T07:54:16.190Z,33.21
2017-09-05T07:56:43.572Z,33.69
2017-09-05T07:59:10.962Z,33.76
2017-09-05T08:01:38.392Z,34.28
2017-09-05T08:04:05.838Z,34.45
2017-09-05T08:06:33.219Z,34.65
2017-09-05T08:09:00.610Z,34.23
2017-09-05T08:11:28.019Z,34.32
2017-09-05T08:13:55.478Z,34.52
2017-09-05T08:16:22.866Z,33.99
2017-09-05T08:18:50.287Z,33.19
2017-09-05T08:21:17.742Z,32.95
2017-09-05T08:23:45.195Z,32.83
2017-09-05T08:26:12.586Z,32.73
2017-09-05T08:28:40.002Z,32.88
2017-09-05T08:31:07.462Z,32.44
2017-09-05T08:33:34.845Z,32.21
2017-09-05T08:36:02.241Z,32.07
2017-09-05T08:38:29.623Z,31.52
2017-09-05T08:40:57.018Z,31.22
2017-09-05T08:43:24.402Z,30.61
2017-09-05T08:45:51.806Z,30.52
2017-09-05T08:48:19.254Z,30.33
2017-09-05T08:50:46.650Z,30.15
2017-09-05T08:53:14.075Z,29.92
2017-09-05T08:55:41.534Z,30.08
2017-09-05T08:58:08.918Z,29.77
2017-09-05T09:00:36.330Z,29.61
2017-09-05T09:03:03.718Z,29.58
2017-09-05T09:05:31.123Z,29.58
2017-09-05T09:07:58.508Z,30.26
2017-09-05T09:10:25.896Z,30.86
2017-09-05T09:12:53.291Z,31.43
2017-09-05T09:15:20.679Z,31.47
2017-09-05T09:17:48.070Z,31.54
2017-09-05T09:20:15.455Z,31.42
2017-09-05T09:22:42.943Z,30.22
2017-09-05T09:25:10.327Z,29.90
2017-09-05T09:27:37.727Z,29.34
2017-09-05T09:30:05.207Z,29.18
2017-09-05T09:32:32.597Z,28.98
2017-09-05T09:35:00.030Z,29.54
2017-09-05T09:37:27.483Z,29.90
2017-09-05T09:39:54.863Z,29.75
2017-09-05T09:42:22.260Z,29.96
2017-09-05T09:44:49.655Z,29.75
2017-09-05T09:47:17.102Z,29.58
2017-09-05T09:49:44.499Z,29.75
2017-09-05T09:52:11.890Z,29.41
2017-09-05T09:54:39.270Z,29.78
2017-09-05T09:57:06.654Z,29.12
2017-09-05T09:59:34.051Z,29.29
2017-09-05T10:02:01.442Z,28.41
2017-09-05T10:04:28.831Z,27.08
2017-09-05T10:06:56.224Z,26.83
2017-09-05T10:09:23.705Z,26.92
2017-09-05T10:11:51.091Z,27.27
2017-09-05T10:14:18.494Z,27.25
2017-09-05T10:16:45.879Z,27.15
2017-09-05T10:19:13.267Z,26.88
2017-09-05T10:21:40.654Z,26.92
2017-09-05T10:24:08.043Z,26.85
2017-09-05T10:26:35.447Z,26.60
2017-09-05T10:29:02.911Z,26.69
2017-09-05T10:31:30.303Z,26.08
2017-09-05T10:33:57.690Z,25.74
2017-09-05T10:36:25.079Z,25.86
2017-09-05T10:38:52.470Z,25.74
2017-09-05T10:43:54.927Z,26.11
2017-09-05T10:46:22.314Z,25.71
2017-09-05T10:48:49.700Z,25.40
2017-09-05T10:51:17.079Z,25.05
2017-09-05T10:53:44.471Z,24.93
2017-09-05T10:56:11.902Z,25.16
2017-09-05T10:58:39.287Z,25.35
2017-09-05T11:01:06.684Z,25.73
2017-09-05T11:03:34.062Z,25.71
2017-09-05T11:06:01.526Z,25.90
2017-09-05T11:08:28.919Z,26.16
2017-09-05T11:10:56.309Z,26.31
2017-09-05T11:13:23.696Z,26.69
2017-09-05T11:15:51.088Z,26.58
2017-09-05T11:18:18.503Z,26.42
2017-09-05T11:20:45.898Z,25.89
2017-09-05T11:23:13.319Z,25.69
2017-09-05T11:25:40.714Z,25.59
2017-09-05T11:28:08.101Z,25.63
2017-09-05T11:30:35.591Z,25.83
2017-09-05T11:33:02.978Z,25.78
2017-09-05T11:35:30.403Z,26.05
2017-09-05T11:37:57.829Z,26.33
2017-09-05T11:40:25.231Z,26.67
2017-09-05T11:42:52.623Z,26.98
2017-09-05T11:45:20.023Z,27.17
2017-09-05T11:47:47.487Z,26.83
2017-09-05T11:50:14.878Z,26.36
2017-09-05T11:52:42.299Z,26.82
2017-09-05T11:55:09.687Z,26.93
2017-09-05T11:57:37.078Z,27.15
2017-09-05T12:00:04.458Z,27.22
2017-09-05T12:02:31.850Z,27.33
2017-09-05T12:04:59.283Z,27.64
2017-09-05T12:07:26.676Z,27.79
2017-09-05T12:09:54.059Z,27.47
2017-09-05T12:12:21.446Z,27.18
2017-09-05T12:14:48.834Z,27.53
2017-09-05T12:17:16.258Z,27.56
2017-09-05T12:19:43.642Z,27.21
2017-09-05T12:22:11.038Z,27.36
2017-09-05T12:24:38.524Z,27.26
2017-09-05T12:27:05.957Z,27.36
2017-09-05T12:29:33.443Z,27.13
2017-09-05T12:32:00.830Z,27.38
2017-09-05T12:34:28.234Z,27.66
2017-09-05T12:36:55.628Z,27.44
2017-09-05T12:39:23.020Z,27.80
2017-09-05T12:41:50.403Z,27.31
2017-09-05T12:44:17.878Z,27.50
2017-09-05T12:46:45.267Z,27.54
2017-09-05T12:49:12.686Z,27.63
2017-09-05T12:51:40.146Z,27.96
2017-09-05T12:54:07.602Z,27.91
2017-09-05T12:56:34.986Z,27.92
2017-09-05T12:59:02.386Z,28.13
2017-09-05T13:01:29.775Z,28.26
2017-09-05T13:03:57.171Z,28.30
2017-09-05T13:06:24.554Z,28.34
2017-09-05T13:08:51.938Z,28.26
2017-09-05T13:11:19.406Z,27.86
2017-09-05T13:13:46.790Z,28.06
2017-09-05T13:16:14.179Z,28.07
2017-09-05T13:18:41.567Z,28.02
2017-09-05T13:21:08.963Z,28.14
2017-09-05T13:23:36.347Z,28.03
2017-09-05T13:26:03.740Z,28.27
2017-09-05T13:28:31.126Z,28.08
2017-09-05T13:30:58.520Z,27.82
2017-09-05T13:33:25.895Z,27.96
2017-09-05T13:35:53.290Z,28.13
2017-09-05T13:38:20.710Z,28.03
2017-09-05T13:40:48.109Z,27.96
2017-09-05T13:43:15.526Z,28.33
2017-09-05T13:45:42.979Z,28.12
2017-09-05T13:48:10.434Z,28.27
2017-09-05T13:50:37.895Z,27.54
2017-09-05T13:53:05.278Z,27.66
2017-09-05T13:55:32.675Z,27.36
2017-09-05T13:58:00.062Z,27.29
2017-09-05T14:00:27.523Z,27.56
2017-09-05T14:02:54.914Z,27.45
2017-09-05T14:05:22.303Z,27.42
2017-09-05T14:07:49.689Z,27.60
2017-09-05T14:10:17.206Z,27.46
2017-09-05T14:12:44.702Z,27.46
2017-09-05T14:15:12.087Z,27.25
2017-09-05T14:17:39.518Z,27.19
2017-09-05T14:20:06.899Z,27.35
2017-09-05T14:22:34.299Z,27.28
2017-09-05T14:25:01.688Z,27.55
2017-09-05T14:27:29.142Z,27.21
2017-09-05T14:29:56.611Z,27.14
2017-09-05T14:32:24.003Z,27.09
2017-09-05T14:34:51.419Z,27.38
2017-09-05T14:37:18.806Z,27.31
2017-09-05T14:39:46.230Z,27.06
2017-09-05T14:42:13.629Z,26.92
2017-09-05T14:44:41.010Z,26.79
2017-09-05T14:47:08.495Z,26.62
2017-09-05T14:49:35.974Z,26.65
2017-09-05T14:52:03.333Z,26.49
2017-09-05T14:54:30.763Z,26.74
2017-09-05T14:56:58.142Z,26.87
2017-09-05T14:59:25.530Z,26.79
2017-09-05T15:01:52.919Z,26.83
2017-09-05T15:04:20.310Z,26.87
2017-09-05T15:06:47.751Z,26.70
2017-09-05T15:09:15.207Z,26.77
2017-09-05T15:11:42.666Z,26.79
2017-09-05T15:14:10.053Z,26.23
2017-09-05T15:16:37.442Z,26.16
2017-09-05T15:19:04.835Z,26.22
2017-09-05T15:21:32.218Z,26.21
2017-09-05T15:23:59.613Z,26.39
2017-09-05T15:26:27.094Z,26.14
2017-09-05T15:28:54.507Z,25.98
2017-09-05T15:31:21.899Z,25.56
2017-09-05T15:33:49.366Z,25.51
2017-09-05T15:36:16.763Z,25.63
2017-09-05T15:38:44.170Z,25.42
2017-09-05T15:41:11.566Z,25.24
2017-09-05T15:43:38.944Z,25.42
2017-09-05T15:46:06.342Z,25.73
2017-09-05T15:48:33.722Z,25.70
2017-09-05T15:51:01.118Z,25.73
2017-09-05T15:53:28.510Z,25.56
2017-09-05T15:55:55.982Z,25.89
2017-09-05T15:58:24.335Z,25.83
2017-09-05T16:00:51.826Z,26.04
2017-09-05T16:03:19.213Z,25.78
2017-09-05T16:05:46.600Z,25.99
2017-09-05T16:08:13.979Z,26.03
2017-09-05T16:10:41.386Z,26.20
2017-09-05T16:13:08.770Z,26.49
2017-09-05T16:15:36.252Z,26.71
2017-09-05T16:18:03.634Z,26.18
2017-09-05T16:20:31.066Z,26.06
2017-09-05T16:22:58.515Z,25.67
2017-09-05T16:25:25.906Z,25.43
2017-09-05T16:27:53.296Z,25.43
2017-09-05T16:30:20.790Z,25.57
2017-09-05T16:32:48.174Z,25.46
2017-09-05T16:35:15.567Z,25.34
2017-09-05T16:37:43.061Z,25.36
2017-09-05T16:40:10.519Z,25.12
2017-09-05T16:42:37.927Z,25.00
2017-09-05T16:45:05.314Z,24.82
2017-09-05T16:47:32.783Z,24.87
2017-09-05T16:50:00.174Z,24.97
2017-09-05T16:52:27.594Z,24.91
2017-09-05T16:54:55.071Z,24.75
2017-09-05T16:57:22.511Z,24.77
2017-09-05T16:59:49.972Z,24.96
2017-09-05T17:02:17.372Z,25.25
2017-09-05T17:04:44.765Z,24.90
2017-09-05T17:07:12.158Z,24.80
2017-09-05T17:09:39.538Z,24.61
2017-09-05T17:12:06.926Z,24.40
2017-09-05T17:14:34.316Z,24.26
2017-09-05T17:17:01.703Z,23.95
2017-09-05T17:19:29.116Z,23.81
2017-09-05T17:21:56.498Z,23.89
2017-09-05T17:24:23.893Z,23.92
2017-09-05T17:26:51.407Z,24.02
2017-09-05T17:29:18.837Z,24.17
2017-09-05T17:31:46.298Z,23.96
2017-09-05T17:34:13.690Z,24.04
2017-09-05T17:36:41.115Z,24.12
2017-09-05T17:39:08.566Z,24.02
2017-09-05T17:41:35.943Z,23.93
2017-09-05T17:44:03.383Z,23.82
2017-09-05T17:46:30.787Z,23.73
2017-09-05T17:48:58.174Z,23.82
2017-09-05T17:51:25.564Z,23.78
2017-09-05T17:53:52.955Z,23.78
2017-09-05T17:56:20.339Z,23.56
2017-09-05T17:58:47.739Z,23.39
2017-09-05T18:01:15.117Z,23.55
2017-09-05T18:03:42.631Z,23.50
2017-09-05T18:06:10.018Z,23.44
2017-09-05T18:08:37.408Z,23.26
2017-09-05T18:11:04.895Z,23.19
2017-09-05T18:13:32.275Z,23.11
2017-09-05T18:15:59.682Z,23.07
2017-09-05T18:18:27.166Z,22.98
2017-09-05T18:20:54.634Z,23.18
2017-09-05T18:23:22.006Z,23.07
2017-09-05T18:25:49.431Z,23.19
2017-09-05T18:28:16.843Z,23.19
2017-09-05T18:30:44.250Z,23.15
2017-09-05T18:33:11.706Z,23.16
2017-09-05T18:35:39.099Z,22.92
2017-09-05T18:38:06.519Z,22.90
2017-09-05T18:40:33.929Z,23.14
2017-09-05T18:43:01.310Z,22.86
2017-09-05T18:45:28.782Z,22.66
2017-09-05T18:47:56.182Z,22.87
2017-09-05T18:50:23.574Z,22.84
2017-09-05T18:52:50.961Z,22.83
2017-09-05T18:55:18.371Z,22.84
2017-09-05T18:57:45.862Z,22.87
2017-09-05T19:00:13.318Z,23.02
2017-09-05T19:02:40.774Z,23.06
2017-09-05T19:05:08.163Z,22.93
2017-09-05T19:07:35.558Z,22.85
2017-09-05T19:10:03.047Z,22.91
2017-09-05T19:12:30.447Z,22.88
2017-09-05T19:14:57.826Z,22.93
2017-09-05T19:17:26.115Z,22.77
2017-09-05T19:19:53.510Z,22.74
2017-09-05T19:22:20.899Z,22.49
2017-09-05T19:24:48.284Z,22.62
2017-09-05T19:27:15.679Z,22.64
2017-09-05T19:29:43.986Z,22.86
2017-09-05T19:32:11.495Z,23.02
2017-09-05T19:34:38.946Z,23.19
2017-09-05T19:37:06.379Z,23.03
2017-09-05T19:39:33.862Z,23.04
2017-09-05T19:42:01.259Z,22.94
2017-09-05T19:44:28.806Z,23.15
2017-09-05T19:46:56.191Z,22.95
2017-09-05T19:49:23.596Z,22.83
2017-09-05T19:51:50.982Z,22.68
2017-09-05T19:54:18.371Z,22.52
2017-09-05T19:56:45.756Z,22.66
2017-09-05T19:59:13.146Z,22.40
2017-09-05T20:01:40.895Z,22.62
2017-09-05T20:04:08.297Z,22.74
2017-09-05T20:06:35.739Z,22.56
2017-09-05T20:09:03.127Z,22.59
2017-09-05T20:11:30.516Z,22.50
2017-09-05T20:13:57.915Z,22.46
2017-09-05T20:16:25.314Z,22.58
2017-09-05T20:18:52.762Z,22.47
2017-09-05T20:21:20.146Z,22.40
2017-09-05T20:23:47.544Z,22.42
2017-09-05T20:26:14.925Z,22.31
2017-09-05T20:28:42.320Z,22.31
2017-09-05T20:31:09.711Z,22.13
2017-09-05T20:33:37.130Z,21.78
2017-09-05T20:36:04.510Z,21.96
2017-09-05T20:38:31.908Z,22.12
2017-09-05T20:40:59.318Z,21.97
2017-09-05T20:43:26.867Z,21.98
2017-09-05T20:45:54.278Z,21.81
2017-09-05T20:48:21.782Z,21.70
2017-09-05T20:50:49.168Z,21.78
2017-09-05T20:53:16.650Z,21.49
2017-09-05T20:55:44.034Z,21.46
2017-09-05T20:58:11.423Z,21.56
2017-09-05T21:00:38.918Z,21.47
2017-09-05T21:03:06.312Z,21.15
2017-09-05T21:05:33.709Z,21.11
2017-09-05T21:08:01.090Z,21.40
2017-09-05T21:10:28.481Z,21.29
2017-09-05T21:12:55.863Z,21.42
2017-09-05T21:15:23.254Z,21.55
2017-09-05T21:17:50.634Z,21.58
2017-09-05T21:20:18.032Z,21.46
2017-09-05T21:22:45.415Z,21.30
2017-09-05T21:25:12.797Z,21.48
2017-09-05T21:27:40.183Z,21.42
2017-09-05T21:30:07.574Z,21.41
2017-09-05T21:32:35.063Z,21.46
2017-09-05T21:35:02.499Z,21.46
2017-09-05T21:37:29.960Z,21.31
2017-09-05T21:39:57.355Z,21.22
2017-09-05T21:42:24.747Z,21.05
2017-09-05T21:44:52.134Z,21.01
2017-09-05T21:47:19.580Z,21.06
2017-09-05T21:49:46.970Z,21.13
2017-09-05T21:52:14.359Z,21.12
2017-09-05T21:54:41.751Z,21.16
2017-09-05T21:57:09.210Z,21.21
2017-09-05T21:59:36.662Z,21.25
2017-09-05T22:02:04.062Z,21.33
2017-09-05T22:04:31.473Z,21.59
2017-09-05T22:06:58.932Z,21.73
2017-09-05T22:09:26.381Z,21.78
2017-09-05T22:11:53.777Z,21.63
2017-09-05T22:14:26.825Z,21.56
2017-09-05T22:16:54.226Z,21.79
2017-09-05T22:22:19.695Z,21.71
2017-09-05T22:24:52.672Z,21.84
2017-09-05T22:27:25.724Z,21.55
2017-09-05T22:29:53.102Z,21.94
2017-09-05T22:32:20.486Z,21.90
2017-09-05T22:34:47.960Z,22.09
2017-09-05T22:37:15.422Z,22.22
2017-09-05T22:39:42.814Z,22.34
2017-09-05T22:42:10.200Z,22.47
2017-09-05T22:44:37.687Z,22.48
2017-09-05T22:47:05.073Z,22.54
2017-09-05T22:49:32.471Z,22.54
2017-09-05T22:51:59.950Z,22.55
2017-09-05T22:54:27.342Z,22.70
2017-09-05T22:56:54.766Z,22.56
2017-09-05T22:59:22.151Z,22.52
2017-09-05T23:01:49.547Z,22.46
2017-09-05T23:04:17.037Z,22.30
2017-09-05T23:06:44.427Z,22.30
2017-09-05T23:09:11.843Z,22.47
2017-09-05T23:11:39.229Z,22.39
2017-09-05T23:14:06.657Z,22.31
2017-09-05T23:16:34.050Z,22.41
2017-09-05T23:19:01.465Z,22.70
2017-09-05T23:21:28.858Z,22.77
2017-09-05T23:23:56.247Z,22.81
2017-09-05T23:26:23.654Z,22.64
2017-09-05T23:28:51.043Z,22.69
2017-09-05T23:31:18.438Z,22.47
2017-09-05T23:33:45.899Z,22.49
2017-09-05T23:36:13.354Z,22.55
2017-09-05T23:38:40.738Z,22.72
2017-09-05T23:41:08.136Z,22.76
2017-09-05T23:43:35.634Z,22.77
2017-09-05T23:46:03.030Z,22.98
2017-09-05T23:48:30.443Z,22.82
2017-09-05T23:50:57.838Z,22.52
2017-09-05T23:53:25.246Z,22.43
2017-09-05T23:55:52.708Z,22.31
2017-09-05T23:58:20.098Z,22.55
